createdAt,value
2023-10-29T00:00:43.131Z,68.51
2023-10-29T00:07:30.986Z,68.97
2023-10-29T00:09:58.928Z,68.56
2023-10-29T00:12:26.867Z,68.66
2023-10-29T00:14:54.908Z,69.24
2023-10-29T00:17:22.930Z,69.25
2023-10-29T00:19:51.624Z,68.99
2023-10-29T00:22:19.477Z,68.99
2023-10-29T00:24:48.996Z,68.42
2023-10-29T00:27:17.225Z,68.43
2023-10-29T00:29:46.556Z,68.20
2023-10-29T00:32:15.511Z,68.61
2023-10-29T00:34:43.563Z,68.66
2023-10-29T00:37:11.496Z,68.61
2023-10-29T00:39:40.058Z,68.65
2023-10-29T00:42:11.483Z,69.10
2023-10-29T00:44:39.612Z,68.93
2023-10-29T00:47:07.918Z,68.96
2023-10-29T00:58:03.122Z,69.03
2023-10-29T01:00:31.088Z,69.17
2023-10-29T01:02:59.714Z,69.37
2023-10-29T01:05:29.284Z,68.06
2023-10-29T01:07:57.259Z,67.79
2023-10-29T01:10:27.219Z,67.94
2023-10-29T01:12:55.269Z,68.36
2023-10-29T01:15:24.480Z,68.05
2023-10-29T01:17:52.395Z,67.41
2023-10-29T01:20:20.712Z,67.57
2023-10-29T01:22:50.068Z,67.67
2023-10-29T01:25:18.342Z,67.41
2023-10-29T01:27:48.540Z,67.88
2023-10-29T01:30:16.781Z,68.21
2023-10-29T01:32:46.428Z,68.43
2023-10-29T01:35:14.375Z,68.48
2023-10-29T01:37:42.320Z,68.62
2023-10-29T01:40:11.076Z,68.42
2023-10-29T01:42:41.813Z,68.79
2023-10-29T01:45:11.431Z,68.31
2023-10-29T01:47:39.479Z,68.00
2023-10-29T01:50:09.631Z,67.95
2023-10-29T01:56:49.510Z,67.86
2023-10-29T01:59:17.837Z,67.61
2023-10-29T02:01:45.796Z,67.42
2023-10-29T02:04:13.843Z,67.45
2023-10-29T02:06:43.063Z,67.09
2023-10-29T02:13:35.845Z,66.61
2023-10-29T02:16:04.782Z,66.13
2023-10-29T02:18:32.894Z,66.01
2023-10-29T02:21:00.799Z,65.68
2023-10-29T02:23:30.163Z,66.19
2023-10-29T02:25:58.027Z,66.33
2023-10-29T02:28:25.887Z,66.53
2023-10-29T02:30:53.803Z,66.56
2023-10-29T02:33:21.834Z,66.17
2023-10-29T02:35:50.954Z,66.17
2023-10-29T02:38:19.466Z,66.04
2023-10-29T02:40:48.726Z,66.11
2023-10-29T02:43:17.166Z,65.92
2023-10-29T02:45:47.401Z,65.56
2023-10-29T02:48:17.696Z,66.20
2023-10-29T02:50:45.753Z,66.31
2023-10-29T02:53:14.967Z,66.26
2023-10-29T02:55:42.801Z,66.48
2023-10-29T02:58:12.014Z,66.05
2023-10-29T03:00:39.955Z,66.03
2023-10-29T03:03:08.176Z,66.71
2023-10-29T03:05:50.176Z,66.74
2023-10-29T03:08:24.215Z,67.73
2023-10-29T03:10:52.470Z,67.63
2023-10-29T03:13:22.121Z,67.57
2023-10-29T03:15:50.162Z,67.27
2023-10-29T03:18:18.246Z,66.59
2023-10-29T03:20:46.306Z,66.46
2023-10-29T03:28:10.031Z,66.33
2023-10-29T03:35:05.189Z,66.32
2023-10-29T03:37:33.033Z,66.38
2023-10-29T03:44:33.592Z,66.54
2023-10-29T03:55:52.837Z,67.06
2023-10-29T03:58:23.159Z,67.01
2023-10-29T04:00:54.135Z,65.56
2023-10-29T04:07:34.400Z,62.78
2023-10-29T04:10:02.281Z,61.72
2023-10-29T04:12:33.226Z,61.79
2023-10-29T04:15:06.144Z,61.73
2023-10-29T04:17:34.940Z,60.49
2023-10-29T04:20:07.131Z,60.70
2023-10-29T04:22:35.201Z,60.76
2023-10-29T04:25:05.694Z,59.49
2023-10-29T04:27:34.872Z,60.21
2023-10-29T04:30:03.361Z,60.02
2023-10-29T04:32:33.572Z,59.72
2023-10-29T04:35:01.529Z,59.63
2023-10-29T04:37:29.403Z,60.74
2023-10-29T04:39:57.567Z,60.32
2023-10-29T04:42:25.563Z,60.08
2023-10-29T04:44:57.199Z,60.52
2023-10-29T04:47:25.099Z,60.50
2023-10-29T04:49:53.055Z,60.68
2023-10-29T04:52:21.052Z,60.87
2023-10-29T04:54:49.250Z,60.69
2023-10-29T04:57:21.693Z,61.14
2023-10-29T04:59:53.394Z,61.48
2023-10-29T05:06:41.862Z,61.06
2023-10-29T05:09:10.696Z,61.02
2023-10-29T05:11:38.561Z,61.11
2023-10-29T05:14:07.066Z,61.87
2023-10-29T05:16:34.969Z,61.86
2023-10-29T05:27:40.919Z,61.46
2023-10-29T05:44:12.945Z,61.00
2023-10-29T05:55:31.033Z,62.16
2023-10-29T05:57:59.398Z,62.48
2023-10-29T06:00:27.309Z,62.79
2023-10-29T06:07:25.540Z,63.24
2023-10-29T06:09:53.440Z,62.98
2023-10-29T06:12:24.723Z,63.10
2023-10-29T06:14:52.636Z,62.82
2023-10-29T06:17:26.717Z,62.36
2023-10-29T06:19:55.518Z,61.73
2023-10-29T06:22:23.478Z,61.56
2023-10-29T06:24:51.327Z,61.75
2023-10-29T06:27:19.144Z,61.91
2023-10-29T06:29:48.419Z,63.71
2023-10-29T06:36:43.467Z,63.30
2023-10-29T06:39:11.380Z,63.46
2023-10-29T06:41:39.336Z,64.04
2023-10-29T06:44:07.753Z,64.01
2023-10-29T06:46:36.970Z,63.84
2023-10-29T06:49:04.940Z,64.28
2023-10-29T06:51:32.873Z,63.95
2023-10-29T06:54:00.865Z,64.09
2023-10-29T06:56:28.910Z,64.08
2023-10-29T06:58:56.858Z,64.35
2023-10-29T07:01:24.765Z,63.60
2023-10-29T07:03:54.255Z,63.51
2023-10-29T07:06:22.364Z,63.32
2023-10-29T07:08:50.331Z,62.68
2023-10-29T07:11:18.317Z,62.79
2023-10-29T07:13:46.283Z,63.29
2023-10-29T07:16:17.973Z,62.18
2023-10-29T07:18:46.081Z,62.06
2023-10-29T07:21:15.928Z,62.76
2023-10-29T07:28:36.474Z,62.74
2023-10-29T07:39:57.924Z,60.86
2023-10-29T07:50:55.605Z,62.58
2023-10-29T07:57:51.124Z,61.71
2023-10-29T08:00:24.030Z,61.11
2023-10-29T08:02:52.022Z,60.20
2023-10-29T08:05:20.045Z,59.26
2023-10-29T08:07:48.127Z,61.15
2023-10-29T08:10:18.349Z,60.34
2023-10-29T08:12:46.249Z,61.40
2023-10-29T08:15:15.265Z,61.17
2023-10-29T08:17:49.212Z,61.39
2023-10-29T08:20:17.600Z,61.09
2023-10-29T08:22:47.864Z,61.39
2023-10-29T08:25:20.385Z,61.84
2023-10-29T08:27:48.454Z,61.92
2023-10-29T08:30:16.531Z,62.79
2023-10-29T08:32:48.369Z,63.72
2023-10-29T08:35:18.847Z,63.18
2023-10-29T08:37:46.963Z,63.11
2023-10-29T08:40:15.507Z,61.16
2023-10-29T08:42:46.124Z,63.25
2023-10-29T08:45:19.652Z,63.34
2023-10-29T08:47:56.532Z,63.06
2023-10-29T08:50:29.465Z,62.40
2023-10-29T08:52:57.938Z,62.70
2023-10-29T08:55:25.909Z,62.67
2023-10-29T08:57:55.755Z,61.83
2023-10-29T09:00:24.427Z,63.32
2023-10-29T09:02:53.819Z,63.22
2023-10-29T09:05:25.472Z,64.10
2023-10-29T09:07:55.877Z,63.96
2023-10-29T09:10:23.989Z,62.02
2023-10-29T09:12:51.945Z,61.82
2023-10-29T09:15:20.671Z,62.38
2023-10-29T09:17:50.712Z,61.71
2023-10-29T09:20:20.838Z,61.57
2023-10-29T09:22:50.111Z,59.09
2023-10-29T09:25:20.086Z,60.04
2023-10-29T09:27:54.257Z,59.03
2023-10-29T09:30:22.161Z,59.01
2023-10-29T09:32:50.263Z,59.86
2023-10-29T09:35:20.772Z,59.61
2023-10-29T09:37:50.002Z,60.16
2023-10-29T09:40:20.282Z,59.79
2023-10-29T09:42:54.489Z,59.15
2023-10-29T09:45:25.439Z,58.54
2023-10-29T09:47:54.999Z,59.01
2023-10-29T09:50:24.769Z,59.39
2023-10-29T09:52:56.800Z,60.43
2023-10-29T09:55:24.936Z,60.30
2023-10-29T09:57:52.988Z,59.81
2023-10-29T10:00:21.048Z,59.79
2023-10-29T10:02:54.326Z,59.38
2023-10-29T10:05:24.062Z,59.65
2023-10-29T10:07:53.790Z,59.80
2023-10-29T10:10:23.469Z,60.21
2023-10-29T10:12:54.003Z,59.67
2023-10-29T10:15:24.621Z,59.36
2023-10-29T10:18:01.342Z,59.91
2023-10-29T10:20:30.292Z,58.81
2023-10-29T10:22:58.678Z,60.09
2023-10-29T10:25:28.994Z,60.92
2023-10-29T10:27:58.566Z,62.07
2023-10-29T10:30:31.717Z,62.74
2023-10-29T10:33:14.046Z,63.88
2023-10-29T10:35:45.785Z,62.97
2023-10-29T10:38:15.015Z,62.27
2023-10-29T10:40:45.658Z,62.23
2023-10-29T10:43:20.211Z,61.54
2023-10-29T10:45:51.669Z,61.00
2023-10-29T10:48:20.240Z,60.72
2023-10-29T10:50:48.966Z,59.41
2023-10-29T10:53:18.829Z,59.30
2023-10-29T10:56:01.593Z,58.45
2023-10-29T10:58:31.689Z,57.97
2023-10-29T11:01:00.869Z,56.21
2023-10-29T11:03:33.870Z,57.88
2023-10-29T11:06:02.499Z,56.79
2023-10-29T11:08:30.777Z,57.62
2023-10-29T11:11:02.543Z,57.30
2023-10-29T11:13:31.290Z,57.35
2023-10-29T11:16:07.225Z,57.25
2023-10-29T11:18:35.410Z,57.18
2023-10-29T11:21:07.992Z,57.31
2023-10-29T11:23:35.979Z,57.57
2023-10-29T11:26:22.866Z,56.98
2023-10-29T11:28:52.700Z,57.05
2023-10-29T11:31:21.609Z,57.55
2023-10-29T11:34:10.217Z,56.65
2023-10-29T11:36:39.476Z,56.53
2023-10-29T11:39:32.325Z,56.27
2023-10-29T11:42:01.901Z,55.52
2023-10-29T11:44:30.982Z,56.16
2023-10-29T11:47:06.521Z,55.36
2023-10-29T11:50:07.626Z,55.04
2023-10-29T11:52:44.999Z,55.61
2023-10-29T11:55:14.012Z,55.69
2023-10-29T11:57:50.873Z,55.40
2023-10-29T12:00:18.978Z,55.40
2023-10-29T12:02:47.438Z,55.04
2023-10-29T12:05:17.412Z,53.99
2023-10-29T12:07:45.638Z,52.97
2023-10-29T12:10:13.611Z,51.55
2023-10-29T12:12:42.621Z,50.94
2023-10-29T12:15:17.947Z,50.49
2023-10-29T12:17:47.791Z,49.40
2023-10-29T12:20:24.444Z,47.57
2023-10-29T12:22:59.241Z,47.70
2023-10-29T12:25:40.399Z,46.96
2023-10-29T12:28:28.349Z,44.86
2023-10-29T12:31:01.133Z,42.91
2023-10-29T12:34:02.539Z,43.70
2023-10-29T12:41:32.198Z,43.41
2023-10-29T12:49:12.813Z,41.48
2023-10-29T12:51:44.359Z,42.40
2023-10-29T12:54:16.076Z,41.45
2023-10-29T12:56:55.580Z,40.66
2023-10-29T12:59:26.922Z,40.21
2023-10-29T13:01:57.403Z,41.62
2023-10-29T13:04:29.122Z,41.08
2023-10-29T13:06:58.822Z,40.81
2023-10-29T13:09:30.604Z,41.25
2023-10-29T13:11:59.370Z,40.50
2023-10-29T13:14:30.480Z,39.85
2023-10-29T13:16:58.601Z,39.60
2023-10-29T13:19:28.681Z,39.10
2023-10-29T13:21:56.691Z,39.25
2023-10-29T13:24:25.321Z,39.31
2023-10-29T13:26:54.294Z,39.60
2023-10-29T13:29:22.830Z,38.86
2023-10-29T13:31:51.164Z,40.15
2023-10-29T13:34:19.360Z,40.90
2023-10-29T13:36:50.951Z,40.25
2023-10-29T13:39:20.234Z,40.64
2023-10-29T13:41:49.542Z,40.54
2023-10-29T13:44:18.476Z,40.65
2023-10-29T13:46:46.683Z,40.10
2023-10-29T13:49:14.672Z,40.48
2023-10-29T13:51:45.458Z,40.27
2023-10-29T13:54:14.929Z,40.71
2023-10-29T13:56:43.629Z,41.20
2023-10-29T13:59:11.855Z,42.09
2023-10-29T14:01:41.000Z,40.76
2023-10-29T14:04:09.160Z,40.06
2023-10-29T14:06:37.129Z,41.81
2023-10-29T14:09:05.547Z,41.01
2023-10-29T14:11:34.873Z,40.70
2023-10-29T14:14:03.757Z,41.75
2023-10-29T14:16:39.379Z,41.55
2023-10-29T14:19:08.563Z,41.81
2023-10-29T14:21:37.063Z,41.33
2023-10-29T14:24:08.086Z,40.94
2023-10-29T14:26:37.877Z,40.82
2023-10-29T14:29:06.014Z,41.13
2023-10-29T14:31:35.509Z,40.66
2023-10-29T14:34:05.107Z,40.20
2023-10-29T14:36:33.132Z,40.31
2023-10-29T14:39:01.229Z,39.57
2023-10-29T14:41:29.192Z,40.00
2023-10-29T14:43:58.522Z,40.02
2023-10-29T14:46:27.010Z,39.84
2023-10-29T14:48:54.982Z,38.95
2023-10-29T14:51:22.949Z,38.95
2023-10-29T14:53:50.866Z,38.85
2023-10-29T14:56:20.797Z,39.34
2023-10-29T14:58:48.814Z,39.10
2023-10-29T15:01:18.060Z,39.47
2023-10-29T15:03:48.940Z,39.68
2023-10-29T15:06:17.076Z,39.63
2023-10-29T15:08:46.410Z,39.75
2023-10-29T15:11:30.020Z,39.69
2023-10-29T15:14:02.252Z,39.70
2023-10-29T15:16:31.648Z,40.03
2023-10-29T15:18:59.672Z,40.59
2023-10-29T15:21:27.631Z,40.92
2023-10-29T15:23:55.601Z,40.27
2023-10-29T15:26:23.804Z,40.15
2023-10-29T15:28:51.688Z,40.35
2023-10-29T15:31:19.740Z,39.64
2023-10-29T15:33:49.222Z,40.06
2023-10-29T15:36:17.158Z,40.68
2023-10-29T15:38:46.271Z,41.27
2023-10-29T15:41:16.771Z,41.88
2023-10-29T15:43:44.815Z,43.01
2023-10-29T15:46:13.643Z,43.30
2023-10-29T15:48:41.708Z,44.69
2023-10-29T15:51:11.820Z,45.37
2023-10-29T15:53:39.878Z,45.58
2023-10-29T15:56:09.066Z,45.95
2023-10-29T15:58:37.063Z,45.55
2023-10-29T16:01:07.622Z,46.08
2023-10-29T16:03:35.556Z,46.40
2023-10-29T16:10:47.797Z,48.22
2023-10-29T16:13:15.561Z,47.57
2023-10-29T16:15:43.610Z,48.24
2023-10-29T16:18:11.546Z,48.58
2023-10-29T16:20:39.610Z,47.44
2023-10-29T16:23:07.500Z,48.57
2023-10-29T16:25:35.387Z,48.72
2023-10-29T16:28:04.917Z,48.13
2023-10-29T16:30:32.934Z,47.82
2023-10-29T16:33:13.248Z,48.04
2023-10-29T16:35:42.100Z,47.69
2023-10-29T16:38:10.356Z,48.04
2023-10-29T16:40:38.711Z,48.11
2023-10-29T16:43:08.036Z,48.39
2023-10-29T16:45:39.725Z,48.24
2023-10-29T16:48:08.757Z,48.74
2023-10-29T16:50:52.520Z,49.99
2023-10-29T16:53:27.735Z,50.63
2023-10-29T16:55:55.690Z,49.41
2023-10-29T16:58:24.989Z,47.95
2023-10-29T17:00:53.555Z,48.32
2023-10-29T17:03:21.830Z,49.45
2023-10-29T17:05:49.872Z,54.90
2023-10-29T17:08:18.016Z,57.76
2023-10-29T17:10:48.408Z,63.25
2023-10-29T17:13:17.962Z,69.46
2023-10-29T17:15:47.411Z,71.00
2023-10-29T17:18:16.568Z,72.04
2023-10-29T17:20:49.955Z,73.72
2023-10-29T17:23:17.897Z,74.02
2023-10-29T17:25:45.830Z,73.57
2023-10-29T17:28:14.125Z,74.51
2023-10-29T17:30:42.129Z,74.71
2023-10-29T17:33:11.542Z,74.08
2023-10-29T17:35:39.465Z,74.16
2023-10-29T17:38:07.916Z,74.68
2023-10-29T17:40:36.498Z,74.19
2023-10-29T17:43:05.029Z,74.63
2023-10-29T17:45:36.827Z,75.30
2023-10-29T17:48:05.695Z,75.05
2023-10-29T17:50:35.179Z,75.60
2023-10-29T17:53:03.790Z,75.95
2023-10-29T17:55:31.951Z,74.83
2023-10-29T17:58:01.037Z,75.87
2023-10-29T18:00:29.661Z,74.99
2023-10-29T18:02:57.653Z,75.05
2023-10-29T18:05:26.028Z,75.81
2023-10-29T18:07:55.554Z,75.03
2023-10-29T18:10:24.722Z,74.78
2023-10-29T18:12:52.948Z,75.48
2023-10-29T18:15:21.208Z,74.81
2023-10-29T18:17:51.632Z,74.26
2023-10-29T18:20:19.803Z,75.25
2023-10-29T18:22:48.203Z,74.79
2023-10-29T18:25:17.704Z,74.20
2023-10-29T18:27:48.358Z,74.32
2023-10-29T18:30:17.144Z,74.15
2023-10-29T18:32:46.565Z,74.59
2023-10-29T18:35:14.806Z,74.11
2023-10-29T18:37:47.656Z,73.62
2023-10-29T18:40:17.413Z,74.25
2023-10-29T18:42:48.129Z,73.27
2023-10-29T18:45:16.428Z,73.30
2023-10-29T18:47:47.841Z,73.41
2023-10-29T18:50:17.983Z,73.12
2023-10-29T18:52:45.887Z,73.16
2023-10-29T18:55:13.827Z,73.33
2023-10-29T18:57:43.034Z,73.23
2023-10-29T19:00:11.898Z,73.78
2023-10-29T19:02:40.051Z,74.07
2023-10-29T19:05:08.230Z,74.31
2023-10-29T19:07:36.151Z,74.88
2023-10-29T19:10:04.455Z,74.26
2023-10-29T19:12:32.549Z,74.17
2023-10-29T19:15:06.092Z,75.07
2023-10-29T19:17:41.064Z,74.78
2023-10-29T19:20:11.769Z,75.42
2023-10-29T19:22:40.282Z,74.42
2023-10-29T19:25:09.674Z,74.46
2023-10-29T19:27:37.784Z,74.86
2023-10-29T19:30:08.966Z,75.37
2023-10-29T19:32:38.420Z,74.83
2023-10-29T19:35:11.141Z,74.99
2023-10-29T19:37:40.437Z,75.10
2023-10-29T19:40:10.341Z,75.25
2023-10-29T19:42:39.990Z,74.99
2023-10-29T19:45:10.773Z,74.96
2023-10-29T19:47:40.115Z,74.71
2023-10-29T19:50:09.754Z,75.93
2023-10-29T19:52:37.718Z,75.67
2023-10-29T19:55:07.204Z,76.22
2023-10-29T19:57:35.544Z,75.90
2023-10-29T20:00:04.097Z,76.30
2023-10-29T20:02:33.930Z,76.58
2023-10-29T20:05:02.264Z,77.92
2023-10-29T20:07:30.446Z,77.96
2023-10-29T20:09:58.585Z,77.58
2023-10-29T20:12:26.689Z,77.80
2023-10-29T20:14:54.692Z,77.59
2023-10-29T20:17:22.693Z,78.01
2023-10-29T20:19:52.155Z,77.57
2023-10-29T20:22:20.351Z,77.41
2023-10-29T20:24:48.379Z,77.24
2023-10-29T20:27:16.327Z,76.61
2023-10-29T20:29:44.651Z,76.73
2023-10-29T20:32:12.690Z,76.74
2023-10-29T20:34:40.597Z,76.45
2023-10-29T20:37:10.044Z,76.42
2023-10-29T20:39:38.092Z,76.17
2023-10-29T20:42:07.077Z,76.17
2023-10-29T20:44:35.641Z,76.44
2023-10-29T20:47:04.229Z,75.78
2023-10-29T20:49:32.329Z,76.26
2023-10-29T20:52:00.345Z,75.89
2023-10-29T20:54:29.678Z,76.19
2023-10-29T20:56:59.883Z,76.68
2023-10-29T20:59:27.917Z,76.39
2023-10-29T21:01:55.905Z,76.07
2023-10-29T21:04:24.092Z,76.38
2023-10-29T21:06:51.984Z,76.84
2023-10-29T21:09:20.609Z,76.81
2023-10-29T21:11:52.858Z,76.61
2023-10-29T21:14:20.913Z,76.44
2023-10-29T21:16:48.739Z,76.28
2023-10-29T21:19:18.310Z,76.26
2023-10-29T21:21:46.379Z,76.02
2023-10-29T21:24:15.309Z,76.18
2023-10-29T21:26:43.388Z,76.64
2023-10-29T21:29:14.936Z,77.68
2023-10-29T21:31:42.852Z,77.77
2023-10-29T21:34:10.792Z,78.47
2023-10-29T21:36:38.821Z,78.70
2023-10-29T21:39:08.460Z,79.00
2023-10-29T21:41:36.462Z,79.34
2023-10-29T21:44:04.630Z,78.42
2023-10-29T21:46:35.048Z,78.98
2023-10-29T21:49:02.979Z,79.03
2023-10-29T21:51:31.968Z,78.49
2023-10-29T21:53:59.867Z,79.16
2023-10-29T21:56:27.815Z,78.60
2023-10-29T21:58:55.766Z,78.73
2023-10-29T22:01:25.818Z,78.45
2023-10-29T22:03:55.494Z,78.75
2023-10-29T22:06:23.570Z,79.22
2023-10-29T22:08:51.457Z,79.36
2023-10-29T22:11:20.129Z,80.27
2023-10-29T22:13:47.985Z,79.82
2023-10-29T22:16:16.732Z,79.96
2023-10-29T22:18:44.992Z,79.37
2023-10-29T22:21:15.044Z,79.54
2023-10-29T22:23:43.081Z,79.51
2023-10-29T22:26:10.931Z,80.53
2023-10-29T22:28:38.900Z,79.99
2023-10-29T22:31:07.281Z,79.93
2023-10-29T22:33:35.323Z,79.68
2023-10-29T22:36:04.563Z,79.63
2023-10-29T22:38:34.431Z,78.84
2023-10-29T22:41:03.644Z,79.32
2023-10-29T22:43:32.163Z,78.68
2023-10-29T22:46:00.671Z,78.73
2023-10-29T22:48:28.999Z,78.36
2023-10-29T22:51:02.234Z,78.26
2023-10-29T22:53:30.252Z,78.54
2023-10-29T22:56:02.086Z,78.43
2023-10-29T22:58:30.485Z,78.07
2023-10-29T23:00:58.639Z,78.02
2023-10-29T23:03:27.174Z,77.92
2023-10-29T23:05:55.951Z,78.19
2023-10-29T23:08:24.233Z,78.51
2023-10-29T23:10:52.850Z,78.06
2023-10-29T23:13:25.878Z,78.13
2023-10-29T23:15:54.272Z,78.04
2023-10-29T23:18:25.342Z,77.94
2023-10-29T23:20:53.298Z,78.20
2023-10-29T23:23:21.203Z,78.14
2023-10-29T23:25:51.182Z,78.24
2023-10-29T23:28:34.061Z,78.56
2023-10-29T23:31:07.586Z,78.67
2023-10-29T23:33:38.081Z,78.52
2023-10-29T23:36:06.753Z,78.35
2023-10-29T23:38:34.619Z,78.64
2023-10-29T23:41:02.502Z,78.33
2023-10-29T23:43:30.954Z,78.46
2023-10-29T23:45:58.823Z,78.34
2023-10-29T23:48:28.061Z,78.67
2023-10-29T23:50:56.031Z,79.13
2023-10-29T23:53:26.066Z,79.14
2023-10-29T23:55:54.038Z,79.56
2023-10-29T23:58:21.939Z,79.63
